createdAt,value
2018-02-27T00:00:11.231Z,19.95
2018-02-27T00:02:40.186Z,22.42
2018-02-27T00:05:08.372Z,25.33
2018-02-27T00:07:36.558Z,21.25
2018-02-27T00:10:04.741Z,27.85
2018-02-27T00:12:32.933Z,23.45
2018-02-27T00:15:01.896Z,19.05
2018-02-27T00:17:30.115Z,23.70
2018-02-27T00:19:58.296Z,22.85
2018-02-27T00:22:26.507Z,22.70
2018-02-27T00:24:54.687Z,26.35
2018-02-27T00:27:22.906Z,20.52
2018-02-27T00:29:51.111Z,22.80
2018-02-27T00:32:19.287Z,22.83
2018-02-27T00:34:47.477Z,26.98
2018-02-27T00:37:15.661Z,26.27
2018-02-27T00:39:43.850Z,21.48
2018-02-27T00:42:12.066Z,28.33
2018-02-27T00:44:40.249Z,24.48
2018-02-27T00:47:08.445Z,18.65
2018-02-27T00:49:36.646Z,28.10
2018-02-27T00:52:04.844Z,22.10
2018-02-27T00:54:33.807Z,23.62
2018-02-27T00:57:01.982Z,21.70
2018-02-27T00:59:30.170Z,24.85
2018-02-27T01:01:58.406Z,18.75
2018-02-27T01:04:26.595Z,25.30
2018-02-27T01:07:01.702Z,22.17
2018-02-27T01:09:29.951Z,22.37
2018-02-27T01:11:58.115Z,28.48
2018-02-27T01:14:26.322Z,24.02
2018-02-27T01:16:54.558Z,20.37
2018-02-27T01:19:22.762Z,26.12
2018-02-27T01:21:51.732Z,26.70
2018-02-27T01:24:19.914Z,24.25
2018-02-27T01:26:48.916Z,25.85
2018-02-27T01:29:17.865Z,22.70
2018-02-27T01:31:46.038Z,26.30
2018-02-27T01:34:14.996Z,34.15
2018-02-27T01:36:43.174Z,26.90
2018-02-27T01:39:11.378Z,24.58
2018-02-27T01:41:39.592Z,30.15
2018-02-27T01:44:08.551Z,25.27
2018-02-27T01:46:36.734Z,28.12
2018-02-27T01:49:04.932Z,25.42
2018-02-27T01:51:33.131Z,27.23
2018-02-27T01:54:01.329Z,24.23
2018-02-27T01:56:29.511Z,26.65
2018-02-27T01:58:57.716Z,28.52
2018-02-27T02:01:25.911Z,24.55
2018-02-27T02:03:54.868Z,29.75
2018-02-27T02:06:23.066Z,23.20
2018-02-27T02:08:51.262Z,26.17
2018-02-27T02:11:20.206Z,29.35
2018-02-27T02:13:48.419Z,26.65
2018-02-27T02:16:17.370Z,28.45
2018-02-27T02:18:45.566Z,29.80
2018-02-27T02:21:13.765Z,28.58
2018-02-27T02:23:42.726Z,25.70
2018-02-27T02:26:10.954Z,22.67
2018-02-27T02:28:39.141Z,26.27
2018-02-27T02:31:07.338Z,26.87
2018-02-27T02:33:35.516Z,24.45
2018-02-27T02:36:03.701Z,23.85
2018-02-27T02:38:31.929Z,26.00
2018-02-27T02:41:00.133Z,29.15
2018-02-27T02:43:28.358Z,25.20
2018-02-27T02:45:57.311Z,32.92
2018-02-27T02:48:25.501Z,26.92
2018-02-27T02:50:53.698Z,30.98
2018-02-27T02:53:21.896Z,30.45
2018-02-27T02:55:50.104Z,25.17
2018-02-27T02:58:18.321Z,30.33
2018-02-27T03:00:46.530Z,24.08
2018-02-27T03:03:14.730Z,22.85
2018-02-27T03:05:42.910Z,38.03
2018-02-27T03:08:11.111Z,27.90
2018-02-27T03:10:39.298Z,33.67
2018-02-27T03:13:07.491Z,26.00
2018-02-27T03:15:36.437Z,25.42
2018-02-27T03:18:04.618Z,27.75
2018-02-27T03:20:32.833Z,25.95
2018-02-27T03:23:01.807Z,28.77
2018-02-27T03:25:29.981Z,20.90
2018-02-27T03:27:58.181Z,28.92
2018-02-27T03:30:27.126Z,26.92
2018-02-27T03:32:55.303Z,29.83
2018-02-27T03:35:23.498Z,29.08
2018-02-27T03:37:51.685Z,33.38
2018-02-27T03:40:19.885Z,26.83
2018-02-27T03:42:48.080Z,28.33
2018-02-27T03:45:16.288Z,28.92
2018-02-27T03:47:44.482Z,26.98
2018-02-27T03:50:13.457Z,27.80
2018-02-27T03:52:41.651Z,29.90
2018-02-27T03:55:10.614Z,29.83
2018-02-27T03:57:38.814Z,29.08
2018-02-27T04:00:07.776Z,24.48
2018-02-27T04:02:36.722Z,26.87
2018-02-27T04:05:04.922Z,24.40
2018-02-27T04:07:33.115Z,27.42
2018-02-27T04:10:01.308Z,22.98
2018-02-27T04:12:29.518Z,34.10
2018-02-27T04:14:58.479Z,30.08
2018-02-27T04:17:26.688Z,30.20
2018-02-27T04:19:54.877Z,30.95
2018-02-27T04:22:23.062Z,31.48
2018-02-27T04:24:51.260Z,29.45
2018-02-27T04:27:19.687Z,33.85
2018-02-27T04:29:48.628Z,26.08
2018-02-27T04:32:16.848Z,31.75
2018-02-27T04:34:45.818Z,27.35
2018-02-27T04:37:14.008Z,28.48
2018-02-27T04:39:42.190Z,25.70
2018-02-27T04:42:11.137Z,32.05
2018-02-27T04:44:39.333Z,32.50
2018-02-27T04:47:07.524Z,27.30
2018-02-27T04:49:35.703Z,28.40
2018-02-27T04:52:04.698Z,30.83
2018-02-27T04:54:33.790Z,28.35
2018-02-27T04:57:01.986Z,34.42
2018-02-27T04:59:30.986Z,27.20
2018-02-27T05:01:59.180Z,26.73
2018-02-27T05:04:27.367Z,31.55
2018-02-27T05:06:55.779Z,33.42
2018-02-27T05:09:23.963Z,30.23
2018-02-27T05:11:53.038Z,23.45
2018-02-27T05:14:22.720Z,25.02
2018-02-27T05:16:50.904Z,24.17
2018-02-27T05:19:19.107Z,30.23
2018-02-27T05:21:47.303Z,26.33
2018-02-27T05:24:16.278Z,25.90
2018-02-27T05:26:44.459Z,30.88
2018-02-27T05:29:12.684Z,30.65
2018-02-27T05:31:40.933Z,29.37
2018-02-27T05:34:09.876Z,30.83
2018-02-27T05:36:38.063Z,29.45
2018-02-27T05:39:06.274Z,27.95
2018-02-27T05:41:35.216Z,20.88
2018-02-27T05:44:03.395Z,25.83
2018-02-27T05:46:31.574Z,26.95
2018-02-27T05:48:59.753Z,33.05
2018-02-27T05:51:27.939Z,25.12
2018-02-27T05:53:56.135Z,21.67
2018-02-27T05:56:25.188Z,26.23
2018-02-27T05:58:53.377Z,28.70
2018-02-27T06:01:21.617Z,32.58
2018-02-27T06:03:49.821Z,33.85
2018-02-27T06:06:18.026Z,30.92
2018-02-27T06:08:46.998Z,31.23
2018-02-27T06:11:15.180Z,32.58
2018-02-27T06:13:43.410Z,27.92
2018-02-27T06:16:11.586Z,25.62
2018-02-27T06:18:39.792Z,34.17
2018-02-27T06:21:07.971Z,30.77
2018-02-27T06:23:36.185Z,23.23
2018-02-27T06:26:04.411Z,28.65
2018-02-27T06:28:32.686Z,28.92
2018-02-27T06:31:00.963Z,24.52
2018-02-27T06:33:29.179Z,32.60
2018-02-27T06:35:58.123Z,28.27
2018-02-27T06:38:26.335Z,24.20
2018-02-27T06:40:55.299Z,29.00
2018-02-27T06:43:23.519Z,29.60
2018-02-27T06:45:52.490Z,30.80
2018-02-27T06:48:20.677Z,30.20
2018-02-27T06:50:49.642Z,27.15
2018-02-27T06:53:17.894Z,27.70
2018-02-27T06:55:46.126Z,33.53
2018-02-27T06:58:15.079Z,22.65
2018-02-27T07:00:43.288Z,37.80
2018-02-27T07:03:12.235Z,28.48
2018-02-27T07:05:40.412Z,27.20
2018-02-27T07:08:08.627Z,30.15
2018-02-27T07:10:36.815Z,38.60
2018-02-27T07:13:05.787Z,28.30
2018-02-27T07:15:34.755Z,32.45
2018-02-27T07:18:02.933Z,38.97
2018-02-27T07:20:31.110Z,28.95
2018-02-27T07:22:59.292Z,29.27
2018-02-27T07:25:27.466Z,31.62
2018-02-27T07:27:55.636Z,34.72
2018-02-27T07:30:23.814Z,29.27
2018-02-27T07:32:52.012Z,30.30
2018-02-27T07:35:20.986Z,29.37
2018-02-27T07:37:49.179Z,26.55
2018-02-27T07:40:18.123Z,27.48
2018-02-27T07:42:46.315Z,26.58
2018-02-27T07:45:14.504Z,30.62
2018-02-27T07:47:42.701Z,28.85
2018-02-27T07:50:11.717Z,30.90
2018-02-27T07:52:39.898Z,30.52
2018-02-27T07:55:08.089Z,24.48
2018-02-27T07:57:36.284Z,36.47
2018-02-27T08:00:04.467Z,27.55
2018-02-27T08:02:32.649Z,26.77
2018-02-27T08:05:00.910Z,27.02
2018-02-27T08:07:29.110Z,26.73
2018-02-27T08:09:58.078Z,26.08
2018-02-27T08:12:26.260Z,31.33
2018-02-27T08:14:54.619Z,30.75
2018-02-27T08:17:22.816Z,32.92
2018-02-27T08:19:51.010Z,32.00
2018-02-27T08:22:19.969Z,31.62
2018-02-27T08:24:48.162Z,29.42
2018-02-27T08:27:16.347Z,30.67
2018-02-27T08:29:44.540Z,34.15
2018-02-27T08:32:13.514Z,31.65
2018-02-27T08:34:41.718Z,25.73
2018-02-27T08:37:09.914Z,34.72
2018-02-27T08:39:38.083Z,29.60
2018-02-27T08:42:06.266Z,35.47
2018-02-27T08:44:34.462Z,33.88
2018-02-27T08:47:02.656Z,33.45
2018-02-27T08:49:30.844Z,29.30
2018-02-27T08:51:59.111Z,28.45
2018-02-27T08:54:27.294Z,30.40
2018-02-27T08:56:55.472Z,34.67
2018-02-27T08:59:24.430Z,28.33
2018-02-27T09:01:52.605Z,30.58
2018-02-27T09:04:20.779Z,27.52
2018-02-27T09:06:48.967Z,34.40
2018-02-27T09:09:17.165Z,27.98
2018-02-27T09:11:46.128Z,29.40
2018-02-27T09:14:14.315Z,33.25
2018-02-27T09:16:42.503Z,29.90
2018-02-27T09:19:10.720Z,33.35
2018-02-27T09:21:39.661Z,27.17
2018-02-27T09:24:07.855Z,29.70
2018-02-27T09:26:36.825Z,25.02
2018-02-27T09:29:05.012Z,30.77
2018-02-27T09:31:33.182Z,27.15
2018-02-27T09:34:01.329Z,31.00
2018-02-27T09:36:29.514Z,32.03
2018-02-27T09:38:57.687Z,27.23
2018-02-27T09:41:25.856Z,31.00
2018-02-27T09:43:53.998Z,29.42
2018-02-27T09:46:22.205Z,27.75
2018-02-27T09:48:50.359Z,29.27
2018-02-27T09:51:18.544Z,30.15
2018-02-27T09:53:46.695Z,29.58
2018-02-27T09:56:14.858Z,30.88
2018-02-27T09:58:43.091Z,31.55
2018-02-27T10:01:11.265Z,25.75
2018-02-27T10:03:39.432Z,32.05
2018-02-27T10:06:07.586Z,27.58
2018-02-27T10:08:35.734Z,26.05
2018-02-27T10:11:03.905Z,28.65
2018-02-27T10:13:32.069Z,34.53
2018-02-27T10:16:01.032Z,29.55
2018-02-27T10:18:29.185Z,26.77
2018-02-27T10:20:57.358Z,22.05
2018-02-27T10:23:25.559Z,28.50
2018-02-27T10:25:53.746Z,30.05
2018-02-27T10:28:22.665Z,27.52
2018-02-27T10:30:50.861Z,30.88
2018-02-27T10:33:19.040Z,29.25
2018-02-27T10:35:47.204Z,26.70
2018-02-27T10:38:15.354Z,27.40
2018-02-27T10:40:43.561Z,27.15
2018-02-27T10:43:11.710Z,26.55
2018-02-27T10:45:39.883Z,23.08
2018-02-27T10:48:08.031Z,24.40
2018-02-27T10:50:36.972Z,23.33
2018-02-27T10:53:05.166Z,27.77
2018-02-27T10:55:33.323Z,25.77
2018-02-27T10:58:01.462Z,30.20
2018-02-27T11:00:35.938Z,24.07
2018-02-27T11:03:04.087Z,23.73
2018-02-27T11:05:32.234Z,28.17
2018-02-27T11:08:01.151Z,29.40
2018-02-27T11:10:29.353Z,24.20
2018-02-27T11:12:57.509Z,25.60
2018-02-27T11:15:25.655Z,28.40
2018-02-27T11:17:54.568Z,24.67
2018-02-27T11:20:22.714Z,27.07
2018-02-27T11:22:51.637Z,22.40
2018-02-27T11:25:19.779Z,24.40
2018-02-27T11:27:48.778Z,25.57
2018-02-27T11:30:17.726Z,29.30
2018-02-27T11:32:45.911Z,21.80
2018-02-27T11:35:14.064Z,27.73
2018-02-27T11:37:42.210Z,24.03
2018-02-27T11:40:10.382Z,27.57
2018-02-27T11:42:38.594Z,26.80
2018-02-27T11:45:06.754Z,25.43
2018-02-27T11:47:34.913Z,25.87
2018-02-27T11:50:03.072Z,25.13
2018-02-27T11:52:31.219Z,23.40
2018-02-27T11:54:59.358Z,23.20
2018-02-27T11:57:27.504Z,26.40
2018-02-27T11:59:55.651Z,25.47
2018-02-27T12:02:24.562Z,27.83
2018-02-27T12:04:52.714Z,24.20
2018-02-27T12:07:21.624Z,21.50
2018-02-27T12:09:49.796Z,23.23
2018-02-27T12:12:18.690Z,25.40
2018-02-27T12:14:46.828Z,27.53
2018-02-27T12:17:14.999Z,30.33
2018-02-27T12:19:43.155Z,22.90
2018-02-27T12:22:12.341Z,28.10
2018-02-27T12:24:40.481Z,26.87
2018-02-27T12:27:09.383Z,26.77
2018-02-27T12:29:37.530Z,28.03
2018-02-27T12:32:06.449Z,32.30
2018-02-27T12:34:34.603Z,30.73
2018-02-27T12:37:03.523Z,34.43
2018-02-27T12:39:31.672Z,34.90
2018-02-27T12:41:59.888Z,28.48
2018-02-27T12:44:28.011Z,35.70
2018-02-27T12:46:56.943Z,34.35
2018-02-27T12:49:25.148Z,39.70
2018-02-27T12:51:53.315Z,46.80
2018-02-27T12:54:21.483Z,43.17
2018-02-27T12:56:49.631Z,47.60
2018-02-27T12:59:17.794Z,48.87
2018-02-27T13:01:45.943Z,51.70
2018-02-27T13:04:14.886Z,47.72
2018-02-27T13:06:43.034Z,48.95
2018-02-27T13:09:11.190Z,45.60
2018-02-27T13:11:40.136Z,49.25
2018-02-27T13:14:08.315Z,46.20
2018-02-27T13:16:36.482Z,50.42
2018-02-27T13:19:04.659Z,53.40
2018-02-27T13:21:32.819Z,57.53
2018-02-27T13:24:00.966Z,55.00
2018-02-27T13:26:29.886Z,46.28
2018-02-27T13:28:58.038Z,56.60
2018-02-27T13:31:26.281Z,50.08
2018-02-27T13:33:54.447Z,53.58
2018-02-27T13:36:22.639Z,42.95
2018-02-27T13:38:51.561Z,40.70
2018-02-27T13:41:19.718Z,53.15
2018-02-27T13:43:48.643Z,46.88
2018-02-27T13:46:16.809Z,49.10
2018-02-27T13:48:45.913Z,46.85
2018-02-27T13:51:13.134Z,56.28
2018-02-27T13:53:42.078Z,53.33
2018-02-27T13:56:10.227Z,49.17
2018-02-27T13:58:38.390Z,49.35
2018-02-27T14:01:06.547Z,47.70
2018-02-27T14:03:35.537Z,51.17
2018-02-27T14:06:03.676Z,61.15
2018-02-27T14:08:31.833Z,54.22
2018-02-27T14:11:00.008Z,52.22
2018-02-27T14:13:28.169Z,50.05
2018-02-27T14:15:56.340Z,52.95
2018-02-27T14:18:24.523Z,44.65
2018-02-27T14:20:52.714Z,50.65
2018-02-27T14:23:20.870Z,39.55
2018-02-27T14:25:49.017Z,43.60
2018-02-27T14:28:17.938Z,48.03
2018-02-27T14:30:46.100Z,49.05
2018-02-27T14:33:14.248Z,50.90
2018-02-27T14:35:43.186Z,48.35
2018-02-27T14:38:11.334Z,58.38
2018-02-27T14:40:39.482Z,48.05
2018-02-27T14:43:08.400Z,46.45
2018-02-27T14:45:36.566Z,46.25
2018-02-27T14:48:04.721Z,45.58
2018-02-27T14:50:33.651Z,37.28
2018-02-27T14:53:01.810Z,38.65
2018-02-27T14:55:29.964Z,40.28
2018-02-27T14:57:58.902Z,42.47
2018-02-27T15:00:27.057Z,53.25
2018-02-27T15:02:55.207Z,44.42
2018-02-27T15:05:24.115Z,46.78
2018-02-27T15:07:52.278Z,44.88
2018-02-27T15:10:21.211Z,41.83
2018-02-27T15:12:49.355Z,39.30
2018-02-27T15:15:17.516Z,41.90
2018-02-27T15:17:46.440Z,48.40
2018-02-27T15:20:14.610Z,45.17
2018-02-27T15:22:42.758Z,39.90
2018-02-27T15:25:11.682Z,44.10
2018-02-27T15:27:39.886Z,45.92
2018-02-27T15:30:08.003Z,46.13
2018-02-27T15:32:36.932Z,47.13
2018-02-27T15:35:05.098Z,44.72
2018-02-27T15:37:33.251Z,47.80
2018-02-27T15:40:01.418Z,39.80
2018-02-27T15:42:30.348Z,44.55
2018-02-27T15:44:58.498Z,40.20
2018-02-27T15:47:26.667Z,52.50
2018-02-27T15:49:54.858Z,37.50
2018-02-27T15:52:23.002Z,37.38
2018-02-27T15:54:51.961Z,34.33
2018-02-27T15:57:20.112Z,38.50
2018-02-27T15:59:48.261Z,45.28
2018-02-27T16:02:16.411Z,47.20
2018-02-27T16:04:45.335Z,39.70
2018-02-27T16:07:13.491Z,47.90
2018-02-27T16:09:42.434Z,39.50
2018-02-27T16:12:10.615Z,42.50
2018-02-27T16:14:38.770Z,42.70
2018-02-27T16:17:06.942Z,38.17
2018-02-27T16:19:35.078Z,44.38
2018-02-27T16:22:04.015Z,40.90
2018-02-27T16:24:32.177Z,38.65
2018-02-27T16:27:00.360Z,41.45
2018-02-27T16:29:28.521Z,38.60
2018-02-27T16:31:56.681Z,40.67
2018-02-27T16:34:24.896Z,45.40
2018-02-27T16:36:53.803Z,48.33
2018-02-27T16:39:21.983Z,44.50
2018-02-27T16:41:50.934Z,41.17
2018-02-27T16:44:19.112Z,42.97
2018-02-27T16:46:47.263Z,39.83
2018-02-27T16:49:15.432Z,42.58
2018-02-27T16:51:43.586Z,42.62
2018-02-27T16:54:12.501Z,39.30
2018-02-27T16:56:40.659Z,35.40
2018-02-27T16:59:09.577Z,42.70
2018-02-27T17:01:37.881Z,41.60
2018-02-27T17:04:06.853Z,44.13
2018-02-27T17:06:35.042Z,41.05
2018-02-27T17:09:03.272Z,43.10
2018-02-27T17:11:32.228Z,41.28
2018-02-27T17:14:00.415Z,46.95
2018-02-27T17:16:28.611Z,43.15
2018-02-27T17:18:57.603Z,40.22
2018-02-27T17:21:26.579Z,44.13
2018-02-27T17:23:54.766Z,49.42
2018-02-27T17:26:24.018Z,45.38
2018-02-27T17:28:53.141Z,44.88
2018-02-27T17:31:21.363Z,42.92
2018-02-27T17:33:49.557Z,46.35
2018-02-27T17:36:17.845Z,40.08
2018-02-27T17:38:46.043Z,46.45
2018-02-27T17:41:14.247Z,46.65
2018-02-27T17:43:43.199Z,41.63
2018-02-27T17:46:11.413Z,40.47
2018-02-27T17:48:40.370Z,46.35
2018-02-27T17:51:08.619Z,46.20
2018-02-27T17:53:37.147Z,47.33
2018-02-27T17:56:05.366Z,48.85
2018-02-27T17:58:33.563Z,51.85
2018-02-27T18:01:01.751Z,50.33
2018-02-27T18:03:29.943Z,56.20
2018-02-27T18:05:58.139Z,49.03
2018-02-27T18:08:27.139Z,50.85
2018-02-27T18:10:56.101Z,46.22
2018-02-27T18:13:24.291Z,45.60
2018-02-27T18:15:53.244Z,46.58
2018-02-27T18:18:21.423Z,50.28
2018-02-27T18:20:49.621Z,39.78
2018-02-27T18:23:17.861Z,42.80
2018-02-27T18:25:46.049Z,44.67
2018-02-27T18:28:14.234Z,40.50
2018-02-27T18:30:42.447Z,32.70
2018-02-27T18:33:11.425Z,29.73
2018-02-27T18:35:39.597Z,39.35
2018-02-27T18:38:07.785Z,27.98
2018-02-27T18:40:36.763Z,33.88
2018-02-27T18:43:04.990Z,35.55
2018-02-27T18:45:33.173Z,35.80
2018-02-27T18:48:01.355Z,38.60
2018-02-27T18:50:29.565Z,31.92
2018-02-27T18:52:57.787Z,31.75
2018-02-27T18:55:25.986Z,27.48
2018-02-27T18:57:54.167Z,36.03
2018-02-27T19:00:22.375Z,31.85
2018-02-27T19:02:51.346Z,31.35
2018-02-27T19:05:19.538Z,32.92
2018-02-27T19:07:48.509Z,34.33
2018-02-27T19:10:16.731Z,35.35
2018-02-27T19:12:44.920Z,32.63
2018-02-27T19:15:13.122Z,34.50
2018-02-27T19:17:42.117Z,31.90
2018-02-27T19:20:10.296Z,31.25
2018-02-27T19:22:38.493Z,34.85
2018-02-27T19:25:06.695Z,26.75
2018-02-27T19:27:35.644Z,27.77
2018-02-27T19:30:03.837Z,33.22
2018-02-27T19:32:32.013Z,30.90
2018-02-27T19:35:00.212Z,35.95
2018-02-27T19:37:29.179Z,32.92
2018-02-27T19:39:57.431Z,25.20
2018-02-27T19:42:25.606Z,31.05
2018-02-27T19:44:53.788Z,30.08
2018-02-27T19:47:22.005Z,31.00
2018-02-27T19:49:50.960Z,27.52
2018-02-27T19:52:19.163Z,25.27
2018-02-27T19:54:48.118Z,25.35
2018-02-27T19:57:16.331Z,25.10
2018-02-27T19:59:45.274Z,28.55
2018-02-27T20:02:13.451Z,25.40
2018-02-27T20:04:42.408Z,31.00
2018-02-27T20:07:10.590Z,33.42
2018-02-27T20:09:38.820Z,27.00
2018-02-27T20:12:07.016Z,30.65
2018-02-27T20:14:35.977Z,29.48
2018-02-27T20:17:04.323Z,34.80
2018-02-27T20:19:33.339Z,25.92
2018-02-27T20:22:01.512Z,28.83
2018-02-27T20:24:29.703Z,33.05
2018-02-27T20:26:57.917Z,35.20
2018-02-27T20:29:26.871Z,34.45
2018-02-27T20:31:55.052Z,29.70
2018-02-27T20:34:23.289Z,30.98
2018-02-27T20:36:51.482Z,24.92
2018-02-27T20:39:26.858Z,29.55
2018-02-27T20:41:55.079Z,37.45
2018-02-27T20:44:23.272Z,28.35
2018-02-27T20:46:51.457Z,35.28
2018-02-27T20:49:19.658Z,28.60
2018-02-27T20:51:47.851Z,29.90
2018-02-27T20:54:16.798Z,38.50
2018-02-27T20:56:44.974Z,40.22
2018-02-27T20:59:13.183Z,40.30
2018-02-27T21:01:42.149Z,29.85
2018-02-27T21:04:10.336Z,31.10
2018-02-27T21:06:38.520Z,32.67
2018-02-27T21:09:07.487Z,28.92
2018-02-27T21:11:35.716Z,32.70
2018-02-27T21:14:03.931Z,33.65
2018-02-27T21:16:32.128Z,34.08
2018-02-27T21:19:00.321Z,33.80
2018-02-27T21:21:29.286Z,32.88
2018-02-27T21:23:57.534Z,34.78
2018-02-27T21:26:25.687Z,44.92
2018-02-27T21:28:53.867Z,61.85
2018-02-27T21:31:22.087Z,48.85
2018-02-27T21:33:50.259Z,41.17
2018-02-27T21:36:18.470Z,36.85
2018-02-27T21:38:47.671Z,31.23
2018-02-27T21:41:15.863Z,32.08
2018-02-27T21:43:44.061Z,40.88
2018-02-27T21:46:12.253Z,34.25
2018-02-27T21:48:41.341Z,35.60
2018-02-27T21:51:09.536Z,38.13
2018-02-27T21:53:37.722Z,41.35
2018-02-27T21:56:05.907Z,42.30
2018-02-27T21:58:34.859Z,37.22
2018-02-27T22:01:03.067Z,34.00
2018-02-27T22:03:32.040Z,42.20
2018-02-27T22:06:00.231Z,37.30
2018-02-27T22:08:28.410Z,41.35
2018-02-27T22:10:56.609Z,44.25
2018-02-27T22:13:25.551Z,42.00
2018-02-27T22:15:53.739Z,48.53
2018-02-27T22:18:21.930Z,53.13
2018-02-27T22:20:50.887Z,54.55
2018-02-27T22:23:19.097Z,61.17
2018-02-27T22:25:47.311Z,63.55
2018-02-27T22:28:15.492Z,65.37
2018-02-27T22:30:43.684Z,58.30
2018-02-27T22:33:11.866Z,59.22
2018-02-27T22:35:40.070Z,51.15
2018-02-27T22:38:08.254Z,82.53
2018-02-27T22:40:37.229Z,58.58
2018-02-27T22:43:05.403Z,66.18
2018-02-27T22:45:33.587Z,56.90
2018-02-27T22:48:01.767Z,61.20
2018-02-27T22:50:30.729Z,60.30
2018-02-27T22:52:58.922Z,60.53
2018-02-27T22:55:27.101Z,60.88
2018-02-27T22:57:55.350Z,67.05
2018-02-27T23:00:40.359Z,55.58
2018-02-27T23:03:09.335Z,64.95
2018-02-27T23:05:37.523Z,56.42
2018-02-27T23:08:06.498Z,58.60
2018-02-27T23:10:34.690Z,64.05
2018-02-27T23:13:03.651Z,50.05
2018-02-27T23:15:31.857Z,48.85
2018-02-27T23:18:00.036Z,51.75
2018-02-27T23:20:29.017Z,43.35
2018-02-27T23:22:57.199Z,44.83
2018-02-27T23:25:44.529Z,39.08
2018-02-27T23:28:16.211Z,36.58
2018-02-27T23:30:47.054Z,32.70
2018-02-27T23:33:15.937Z,37.13
2018-02-27T23:35:44.150Z,37.80
2018-02-27T23:38:12.327Z,35.83
2018-02-27T23:40:40.522Z,28.73
2018-02-27T23:43:08.721Z,34.40
2018-02-27T23:45:37.692Z,34.75
2018-02-27T23:48:05.896Z,37.90
2018-02-27T23:50:34.879Z,33.90
2018-02-27T23:53:03.833Z,38.13
2018-02-27T23:55:32.026Z,37.83
2018-02-27T23:58:00.259Z,35.78
